sensor_id;sensor_type;location;lat;lon;timestamp;P1;durP1;ratioP1;P2;durP2;ratioP2
39956;SDS011;48483;44.640;7.494;2023-10-31T00:01:38;2.70;;;1.50;;
39956;SDS011;48483;44.640;7.494;2023-10-31T00:04:04;3.22;;;1.40;;
39956;SDS011;48483;44.640;7.494;2023-10-31T00:06:31;2.58;;;1.30;;
39956;SDS011;48483;44.640;7.494;2023-10-31T00:08:58;5.80;;;1.90;;
39956;SDS011;48483;44.640;7.494;2023-10-31T00:11:24;2.40;;;1.40;;
39956;SDS011;48483;44.640;7.494;2023-10-31T00:13:51;3.17;;;1.77;;
39956;SDS011;48483;44.640;7.494;2023-10-31T00:16:19;4.85;;;1.80;;
39956;SDS011;48483;44.640;7.494;2023-10-31T00:18:46;4.75;;;2.03;;
39956;SDS011;48483;44.640;7.494;2023-10-31T00:21:12;3.17;;;1.92;;
39956;SDS011;48483;44.640;7.494;2023-10-31T00:23:42;5.20;;;2.20;;
39956;SDS011;48483;44.640;7.494;2023-10-31T00:26:09;3.80;;;2.45;;
39956;SDS011;48483;44.640;7.494;2023-10-31T00:28:37;4.43;;;2.40;;
39956;SDS011;48483;44.640;7.494;2023-10-31T00:31:04;3.83;;;2.40;;
39956;SDS011;48483;44.640;7.494;2023-10-31T00:33:34;5.43;;;2.95;;
39956;SDS011;48483;44.640;7.494;2023-10-31T00:36:01;3.05;;;2.20;;
39956;SDS011;48483;44.640;7.494;2023-10-31T00:38:28;3.08;;;1.80;;
39956;SDS011;48483;44.640;7.494;2023-10-31T00:40:56;2.10;;;1.33;;
39956;SDS011;48483;44.640;7.494;2023-10-31T00:43:22;2.30;;;1.30;;
39956;SDS011;48483;44.640;7.494;2023-10-31T00:45:49;2.47;;;1.15;;
39956;SDS011;48483;44.640;7.494;2023-10-31T00:48:16;1.70;;;1.13;;
39956;SDS011;48483;44.640;7.494;2023-10-31T00:50:44;4.30;;;1.23;;
39956;SDS011;48483;44.640;7.494;2023-10-31T00:53:10;3.28;;;1.60;;
39956;SDS011;48483;44.640;7.494;2023-10-31T00:55:39;2.63;;;1.40;;
39956;SDS011;48483;44.640;7.494;2023-10-31T00:58:07;3.67;;;2.13;;
39956;SDS011;48483;44.640;7.494;2023-10-31T01:00:34;2.40;;;1.80;;
39956;SDS011;48483;44.640;7.494;2023-10-31T01:03:03;2.13;;;1.70;;
39956;SDS011;48483;44.640;7.494;2023-10-31T01:05:29;3.72;;;2.00;;
39956;SDS011;48483;44.640;7.494;2023-10-31T01:07:57;4.90;;;3.10;;
39956;SDS011;48483;44.640;7.494;2023-10-31T01:10:24;5.03;;;3.30;;
39956;SDS011;48483;44.640;7.494;2023-10-31T01:12:52;7.00;;;4.75;;
39956;SDS011;48483;44.640;7.494;2023-10-31T01:15:18;8.25;;;5.45;;
39956;SDS011;48483;44.640;7.494;2023-10-31T01:17:45;6.80;;;5.30;;
39956;SDS011;48483;44.640;7.494;2023-10-31T01:20:11;6.20;;;4.35;;
39956;SDS011;48483;44.640;7.494;2023-10-31T01:22:38;5.45;;;3.90;;
39956;SDS011;48483;44.640;7.494;2023-10-31T01:25:06;4.57;;;3.53;;
39956;SDS011;48483;44.640;7.494;2023-10-31T01:27:33;6.07;;;3.60;;
39956;SDS011;48483;44.640;7.494;2023-10-31T01:30:00;5.43;;;3.28;;
39956;SDS011;48483;44.640;7.494;2023-10-31T01:32:27;5.10;;;3.33;;
39956;SDS011;48483;44.640;7.494;2023-10-31T01:34:55;4.60;;;3.30;;
39956;SDS011;48483;44.640;7.494;2023-10-31T01:37:21;3.83;;;2.83;;
39956;SDS011;48483;44.640;7.494;2023-10-31T01:39:48;5.43;;;2.88;;
39956;SDS011;48483;44.640;7.494;2023-10-31T01:42:16;3.75;;;2.97;;
39956;SDS011;48483;44.640;7.494;2023-10-31T01:44:43;4.35;;;3.17;;
39956;SDS011;48483;44.640;7.494;2023-10-31T01:47:10;3.92;;;2.95;;
39956;SDS011;48483;44.640;7.494;2023-10-31T01:49:37;3.53;;;2.50;;
39956;SDS011;48483;44.640;7.494;2023-10-31T01:52:04;4.63;;;3.00;;
39956;SDS011;48483;44.640;7.494;2023-10-31T01:54:32;3.78;;;2.40;;
39956;SDS011;48483;44.640;7.494;2023-10-31T01:57:01;4.05;;;2.65;;
39956;SDS011;48483;44.640;7.494;2023-10-31T01:59:29;3.45;;;2.22;;
39956;SDS011;48483;44.640;7.494;2023-10-31T02:01:57;2.92;;;2.30;;
39956;SDS011;48483;44.640;7.494;2023-10-31T02:04:24;3.28;;;2.45;;
39956;SDS011;48483;44.640;7.494;2023-10-31T02:06:51;3.45;;;2.22;;
39956;SDS011;48483;44.640;7.494;2023-10-31T02:09:19;2.95;;;2.28;;
39956;SDS011;48483;44.640;7.494;2023-10-31T02:11:49;3.75;;;2.28;;
39956;SDS011;48483;44.640;7.494;2023-10-31T02:14:16;2.75;;;2.08;;
39956;SDS011;48483;44.640;7.494;2023-10-31T02:16:44;3.17;;;1.98;;
39956;SDS011;48483;44.640;7.494;2023-10-31T02:19:11;5.32;;;1.80;;
39956;SDS011;48483;44.640;7.494;2023-10-31T02:21:43;2.17;;;1.50;;
39956;SDS011;48483;44.640;7.494;2023-10-31T02:24:10;1.95;;;1.30;;
39956;SDS011;48483;44.640;7.494;2023-10-31T02:26:37;2.10;;;1.20;;
39956;SDS011;48483;44.640;7.494;2023-10-31T02:29:04;2.45;;;1.58;;
39956;SDS011;48483;44.640;7.494;2023-10-31T02:31:32;2.15;;;1.27;;
39956;SDS011;48483;44.640;7.494;2023-10-31T02:33:59;1.38;;;1.23;;
39956;SDS011;48483;44.640;7.494;2023-10-31T02:36:25;2.90;;;1.50;;
39956;SDS011;48483;44.640;7.494;2023-10-31T02:38:53;2.20;;;1.38;;
39956;SDS011;48483;44.640;7.494;2023-10-31T02:41:20;2.47;;;1.75;;
39956;SDS011;48483;44.640;7.494;2023-10-31T02:43:47;1.80;;;1.38;;
39956;SDS011;48483;44.640;7.494;2023-10-31T02:46:13;2.40;;;1.40;;
39956;SDS011;48483;44.640;7.494;2023-10-31T02:48:42;1.58;;;1.25;;
39956;SDS011;48483;44.640;7.494;2023-10-31T02:51:08;1.85;;;1.38;;
39956;SDS011;48483;44.640;7.494;2023-10-31T02:53:35;1.90;;;1.27;;
39956;SDS011;48483;44.640;7.494;2023-10-31T02:56:04;1.92;;;1.30;;
39956;SDS011;48483;44.640;7.494;2023-10-31T02:58:31;2.65;;;1.77;;
39956;SDS011;48483;44.640;7.494;2023-10-31T03:00:58;3.40;;;1.75;;
39956;SDS011;48483;44.640;7.494;2023-10-31T03:03:25;1.75;;;1.23;;
39956;SDS011;48483;44.640;7.494;2023-10-31T03:05:51;1.48;;;1.10;;
39956;SDS011;48483;44.640;7.494;2023-10-31T03:08:18;2.72;;;0.90;;
39956;SDS011;48483;44.640;7.494;2023-10-31T03:10:47;0.98;;;0.70;;
39956;SDS011;48483;44.640;7.494;2023-10-31T03:13:17;1.98;;;0.70;;
39956;SDS011;48483;44.640;7.494;2023-10-31T03:15:44;0.90;;;0.50;;
39956;SDS011;48483;44.640;7.494;2023-10-31T03:18:11;1.08;;;0.52;;
39956;SDS011;48483;44.640;7.494;2023-10-31T03:20:40;0.68;;;0.40;;
39956;SDS011;48483;44.640;7.494;2023-10-31T03:23:09;1.23;;;0.50;;
39956;SDS011;48483;44.640;7.494;2023-10-31T03:25:35;0.75;;;0.40;;
39956;SDS011;48483;44.640;7.494;2023-10-31T03:28:02;1.13;;;0.40;;
39956;SDS011;48483;44.640;7.494;2023-10-31T03:30:30;1.70;;;0.60;;
39956;SDS011;48483;44.640;7.494;2023-10-31T03:32:58;0.77;;;0.57;;
39956;SDS011;48483;44.640;7.494;2023-10-31T03:35:24;1.75;;;0.70;;
39956;SDS011;48483;44.640;7.494;2023-10-31T03:37:51;1.95;;;0.60;;
39956;SDS011;48483;44.640;7.494;2023-10-31T03:40:17;0.82;;;0.47;;
39956;SDS011;48483;44.640;7.494;2023-10-31T03:42:44;3.22;;;0.68;;
39956;SDS011;48483;44.640;7.494;2023-10-31T03:45:11;1.05;;;0.45;;
39956;SDS011;48483;44.640;7.494;2023-10-31T03:47:38;0.68;;;0.40;;
39956;SDS011;48483;44.640;7.494;2023-10-31T03:50:05;0.73;;;0.30;;
39956;SDS011;48483;44.640;7.494;2023-10-31T03:52:33;0.60;;;0.30;;
39956;SDS011;48483;44.640;7.494;2023-10-31T03:55:00;1.23;;;0.30;;
39956;SDS011;48483;44.640;7.494;2023-10-31T03:57:26;1.27;;;0.50;;
39956;SDS011;48483;44.640;7.494;2023-10-31T03:59:53;0.30;;;0.30;;
39956;SDS011;48483;44.640;7.494;2023-10-31T04:02:20;2.60;;;0.50;;
39956;SDS011;48483;44.640;7.494;2023-10-31T04:04:48;1.85;;;0.30;;
39956;SDS011;48483;44.640;7.494;2023-10-31T04:07:15;0.43;;;0.30;;
39956;SDS011;48483;44.640;7.494;2023-10-31T04:09:42;0.30;;;0.30;;
39956;SDS011;48483;44.640;7.494;2023-10-31T04:12:09;1.08;;;0.30;;
39956;SDS011;48483;44.640;7.494;2023-10-31T04:14:35;0.68;;;0.28;;
39956;SDS011;48483;44.640;7.494;2023-10-31T04:17:04;0.82;;;0.52;;
39956;SDS011;48483;44.640;7.494;2023-10-31T04:19:30;0.45;;;0.32;;
39956;SDS011;48483;44.640;7.494;2023-10-31T04:21:58;0.30;;;0.30;;
39956;SDS011;48483;44.640;7.494;2023-10-31T04:24:25;2.22;;;0.35;;
39956;SDS011;48483;44.640;7.494;2023-10-31T04:26:51;1.60;;;0.50;;
39956;SDS011;48483;44.640;7.494;2023-10-31T04:29:18;1.65;;;0.80;;
39956;SDS011;48483;44.640;7.494;2023-10-31T04:31:45;2.45;;;0.70;;
39956;SDS011;48483;44.640;7.494;2023-10-31T04:34:11;2.78;;;0.93;;
39956;SDS011;48483;44.640;7.494;2023-10-31T04:36:39;1.10;;;0.52;;
39956;SDS011;48483;44.640;7.494;2023-10-31T04:39:07;0.63;;;0.40;;
39956;SDS011;48483;44.640;7.494;2023-10-31T04:41:33;0.82;;;0.40;;
39956;SDS011;48483;44.640;7.494;2023-10-31T04:44:00;0.60;;;0.35;;
39956;SDS011;48483;44.640;7.494;2023-10-31T04:46:26;0.75;;;0.35;;
39956;SDS011;48483;44.640;7.494;2023-10-31T04:48:53;0.52;;;0.40;;
39956;SDS011;48483;44.640;7.494;2023-10-31T04:51:20;0.20;;;0.20;;
39956;SDS011;48483;44.640;7.494;2023-10-31T04:53:46;1.42;;;0.25;;
39956;SDS011;48483;44.640;7.494;2023-10-31T04:56:14;0.68;;;0.30;;
39956;SDS011;48483;44.640;7.494;2023-10-31T04:58:41;0.30;;;0.30;;
39956;SDS011;48483;44.640;7.494;2023-10-31T05:01:08;1.00;;;0.28;;
39956;SDS011;48483;44.640;7.494;2023-10-31T05:03:35;0.73;;;0.20;;
39956;SDS011;48483;44.640;7.494;2023-10-31T05:06:02;0.95;;;0.30;;
39956;SDS011;48483;44.640;7.494;2023-10-31T05:08:29;1.13;;;0.50;;
39956;SDS011;48483;44.640;7.494;2023-10-31T05:10:56;0.68;;;0.40;;
39956;SDS011;48483;44.640;7.494;2023-10-31T05:13:25;1.08;;;0.50;;
39956;SDS011;48483;44.640;7.494;2023-10-31T05:15:52;0.60;;;0.32;;
39956;SDS011;48483;44.640;7.494;2023-10-31T05:18:18;1.73;;;0.60;;
39956;SDS011;48483;44.640;7.494;2023-10-31T05:20:45;1.13;;;0.57;;
39956;SDS011;48483;44.640;7.494;2023-10-31T05:23:12;1.50;;;0.55;;
39956;SDS011;48483;44.640;7.494;2023-10-31T05:25:38;1.20;;;0.40;;
39956;SDS011;48483;44.640;7.494;2023-10-31T05:28:05;1.13;;;0.50;;
39956;SDS011;48483;44.640;7.494;2023-10-31T05:30:33;0.57;;;0.30;;
39956;SDS011;48483;44.640;7.494;2023-10-31T05:33:00;0.65;;;0.40;;
39956;SDS011;48483;44.640;7.494;2023-10-31T05:35:26;0.63;;;0.40;;
39956;SDS011;48483;44.640;7.494;2023-10-31T05:37:53;0.22;;;0.22;;
39956;SDS011;48483;44.640;7.494;2023-10-31T05:40:19;0.85;;;0.35;;
39956;SDS011;48483;44.640;7.494;2023-10-31T05:42:50;2.35;;;0.98;;
39956;SDS011;48483;44.640;7.494;2023-10-31T05:45:17;3.28;;;0.70;;
39956;SDS011;48483;44.640;7.494;2023-10-31T05:47:44;2.85;;;0.50;;
39956;SDS011;48483;44.640;7.494;2023-10-31T05:50:11;1.33;;;0.40;;
39956;SDS011;48483;44.640;7.494;2023-10-31T05:52:38;0.82;;;0.50;;
39956;SDS011;48483;44.640;7.494;2023-10-31T05:55:05;1.55;;;0.80;;
39956;SDS011;48483;44.640;7.494;2023-10-31T05:57:32;0.90;;;0.65;;
39956;SDS011;48483;44.640;7.494;2023-10-31T05:59:59;1.90;;;1.13;;
39956;SDS011;48483;44.640;7.494;2023-10-31T06:02:25;1.40;;;0.77;;
39956;SDS011;48483;44.640;7.494;2023-10-31T06:04:53;2.67;;;0.80;;
39956;SDS011;48483;44.640;7.494;2023-10-31T06:07:20;3.30;;;1.00;;
39956;SDS011;48483;44.640;7.494;2023-10-31T06:09:47;1.83;;;1.17;;
39956;SDS011;48483;44.640;7.494;2023-10-31T06:12:13;2.20;;;0.75;;
39956;SDS011;48483;44.640;7.494;2023-10-31T06:14:40;0.90;;;0.43;;
39956;SDS011;48483;44.640;7.494;2023-10-31T06:17:06;0.60;;;0.40;;
39956;SDS011;48483;44.640;7.494;2023-10-31T06:19:34;1.20;;;0.47;;
39956;SDS011;48483;44.640;7.494;2023-10-31T06:22:02;0.77;;;0.30;;
39956;SDS011;48483;44.640;7.494;2023-10-31T06:24:29;0.40;;;0.38;;
39956;SDS011;48483;44.640;7.494;2023-10-31T06:26:56;2.00;;;0.50;;
39956;SDS011;48483;44.640;7.494;2023-10-31T06:29:22;2.95;;;0.47;;
39956;SDS011;48483;44.640;7.494;2023-10-31T06:31:49;4.45;;;1.35;;
39956;SDS011;48483;44.640;7.494;2023-10-31T06:34:15;0.70;;;0.57;;
39956;SDS011;48483;44.640;7.494;2023-10-31T06:36:42;1.42;;;0.95;;
39956;SDS011;48483;44.640;7.494;2023-10-31T06:39:10;2.67;;;0.70;;
39956;SDS011;48483;44.640;7.494;2023-10-31T06:41:37;1.98;;;0.50;;
39956;SDS011;48483;44.640;7.494;2023-10-31T06:44:04;1.08;;;0.60;;
39956;SDS011;48483;44.640;7.494;2023-10-31T06:46:30;3.15;;;0.90;;
39956;SDS011;48483;44.640;7.494;2023-10-31T06:48:57;2.75;;;1.02;;
39956;SDS011;48483;44.640;7.494;2023-10-31T06:51:23;1.70;;;0.88;;
39956;SDS011;48483;44.640;7.494;2023-10-31T06:53:50;2.63;;;1.27;;
39956;SDS011;48483;44.640;7.494;2023-10-31T06:56:18;2.38;;;1.00;;
39956;SDS011;48483;44.640;7.494;2023-10-31T06:58:45;3.78;;;1.40;;
39956;SDS011;48483;44.640;7.494;2023-10-31T07:01:11;2.70;;;1.15;;
39956;SDS011;48483;44.640;7.494;2023-10-31T07:03:39;2.38;;;0.77;;
39956;SDS011;48483;44.640;7.494;2023-10-31T07:06:06;2.08;;;0.85;;
39956;SDS011;48483;44.640;7.494;2023-10-31T07:08:33;2.20;;;0.80;;
39956;SDS011;48483;44.640;7.494;2023-10-31T07:10:59;1.67;;;0.88;;
39956;SDS011;48483;44.640;7.494;2023-10-31T07:13:27;3.38;;;1.02;;
39956;SDS011;48483;44.640;7.494;2023-10-31T07:15:54;5.45;;;1.58;;
39956;SDS011;48483;44.640;7.494;2023-10-31T07:18:21;4.50;;;1.73;;
39956;SDS011;48483;44.640;7.494;2023-10-31T07:20:47;3.72;;;1.63;;
39956;SDS011;48483;44.640;7.494;2023-10-31T07:23:14;10.10;;;5.68;;
39956;SDS011;48483;44.640;7.494;2023-10-31T07:25:40;5.63;;;2.67;;
39956;SDS011;48483;44.640;7.494;2023-10-31T07:28:07;5.90;;;2.50;;
39956;SDS011;48483;44.640;7.494;2023-10-31T07:30:35;4.45;;;1.80;;
39956;SDS011;48483;44.640;7.494;2023-10-31T07:33:01;5.60;;;2.95;;
39956;SDS011;48483;44.640;7.494;2023-10-31T07:35:28;5.15;;;3.40;;
39956;SDS011;48483;44.640;7.494;2023-10-31T07:37:55;3.22;;;1.98;;
39956;SDS011;48483;44.640;7.494;2023-10-31T07:40:21;4.80;;;1.60;;
39956;SDS011;48483;44.640;7.494;2023-10-31T07:42:48;2.38;;;1.45;;
39956;SDS011;48483;44.640;7.494;2023-10-31T07:45:14;2.10;;;1.40;;
39956;SDS011;48483;44.640;7.494;2023-10-31T07:47:42;4.03;;;1.35;;
39956;SDS011;48483;44.640;7.494;2023-10-31T07:50:09;3.42;;;1.25;;
39956;SDS011;48483;44.640;7.494;2023-10-31T07:52:36;2.80;;;1.45;;
39956;SDS011;48483;44.640;7.494;2023-10-31T07:55:02;1.63;;;0.95;;
39956;SDS011;48483;44.640;7.494;2023-10-31T07:57:29;2.05;;;1.17;;
39956;SDS011;48483;44.640;7.494;2023-10-31T07:59:56;3.03;;;1.45;;
39956;SDS011;48483;44.640;7.494;2023-10-31T08:02:22;1.98;;;1.10;;
39956;SDS011;48483;44.640;7.494;2023-10-31T08:04:50;2.65;;;1.88;;
39956;SDS011;48483;44.640;7.494;2023-10-31T08:07:17;5.00;;;3.45;;
39956;SDS011;48483;44.640;7.494;2023-10-31T08:09:44;7.57;;;4.55;;
39956;SDS011;48483;44.640;7.494;2023-10-31T08:12:10;6.55;;;4.30;;
39956;SDS011;48483;44.640;7.494;2023-10-31T08:14:37;5.05;;;3.55;;
39956;SDS011;48483;44.640;7.494;2023-10-31T08:17:03;5.82;;;3.13;;
39956;SDS011;48483;44.640;7.494;2023-10-31T08:19:30;5.00;;;2.25;;
39956;SDS011;48483;44.640;7.494;2023-10-31T08:21:58;5.13;;;1.73;;
39956;SDS011;48483;44.640;7.494;2023-10-31T08:24:24;6.75;;;2.20;;
39956;SDS011;48483;44.640;7.494;2023-10-31T08:26:51;2.97;;;1.33;;
39956;SDS011;48483;44.640;7.494;2023-10-31T08:29:17;2.58;;;1.40;;
39956;SDS011;48483;44.640;7.494;2023-10-31T08:31:44;2.15;;;0.90;;
39956;SDS011;48483;44.640;7.494;2023-10-31T08:34:10;3.88;;;1.55;;
39956;SDS011;48483;44.640;7.494;2023-10-31T08:36:37;3.10;;;1.30;;
39956;SDS011;48483;44.640;7.494;2023-10-31T08:39:05;2.53;;;1.40;;
39956;SDS011;48483;44.640;7.494;2023-10-31T08:41:31;2.95;;;1.55;;
39956;SDS011;48483;44.640;7.494;2023-10-31T08:43:58;3.33;;;1.70;;
39956;SDS011;48483;44.640;7.494;2023-10-31T08:46:25;2.20;;;1.33;;
39956;SDS011;48483;44.640;7.494;2023-10-31T08:48:52;4.07;;;1.98;;
39956;SDS011;48483;44.640;7.494;2023-10-31T08:51:18;4.18;;;2.50;;
39956;SDS011;48483;44.640;7.494;2023-10-31T08:53:45;4.72;;;2.28;;
39956;SDS011;48483;44.640;7.494;2023-10-31T08:56:13;3.00;;;2.40;;
39956;SDS011;48483;44.640;7.494;2023-10-31T08:58:39;2.97;;;2.00;;
39956;SDS011;48483;44.640;7.494;2023-10-31T09:01:06;2.33;;;1.75;;
39956;SDS011;48483;44.640;7.494;2023-10-31T09:03:33;3.00;;;1.67;;
39956;SDS011;48483;44.640;7.494;2023-10-31T09:05:59;4.95;;;2.00;;
39956;SDS011;48483;44.640;7.494;2023-10-31T09:08:26;4.13;;;1.98;;
39956;SDS011;48483;44.640;7.494;2023-10-31T09:10:53;4.68;;;2.10;;
39956;SDS011;48483;44.640;7.494;2023-10-31T09:13:21;4.05;;;2.90;;
39956;SDS011;48483;44.640;7.494;2023-10-31T09:15:47;3.45;;;2.25;;
39956;SDS011;48483;44.640;7.494;2023-10-31T09:18:15;4.05;;;2.83;;
39956;SDS011;48483;44.640;7.494;2023-10-31T09:20:42;4.25;;;2.60;;
39956;SDS011;48483;44.640;7.494;2023-10-31T09:23:08;6.72;;;2.88;;
39956;SDS011;48483;44.640;7.494;2023-10-31T09:25:35;4.55;;;2.72;;
39956;SDS011;48483;44.640;7.494;2023-10-31T09:28:02;8.77;;;3.05;;
39956;SDS011;48483;44.640;7.494;2023-10-31T09:30:30;5.38;;;3.13;;
39956;SDS011;48483;44.640;7.494;2023-10-31T09:32:57;5.45;;;3.22;;
39956;SDS011;48483;44.640;7.494;2023-10-31T09:35:24;4.05;;;2.75;;
39956;SDS011;48483;44.640;7.494;2023-10-31T09:37:52;4.30;;;2.80;;
39956;SDS011;48483;44.640;7.494;2023-10-31T09:40:18;6.10;;;3.03;;
39956;SDS011;48483;44.640;7.494;2023-10-31T09:42:45;7.60;;;3.25;;
39956;SDS011;48483;44.640;7.494;2023-10-31T09:45:13;6.75;;;3.42;;
39956;SDS011;48483;44.640;7.494;2023-10-31T09:47:44;6.70;;;3.05;;
39956;SDS011;48483;44.640;7.494;2023-10-31T09:50:11;5.75;;;2.92;;
39956;SDS011;48483;44.640;7.494;2023-10-31T09:52:38;13.45;;;4.00;;
39956;SDS011;48483;44.640;7.494;2023-10-31T09:55:05;6.05;;;3.00;;
39956;SDS011;48483;44.640;7.494;2023-10-31T09:57:33;7.85;;;4.03;;
39956;SDS011;48483;44.640;7.494;2023-10-31T10:00:00;5.70;;;3.42;;
39956;SDS011;48483;44.640;7.494;2023-10-31T10:02:27;5.75;;;3.30;;
39956;SDS011;48483;44.640;7.494;2023-10-31T10:04:55;5.18;;;3.47;;
39956;SDS011;48483;44.640;7.494;2023-10-31T10:07:21;6.22;;;3.55;;
39956;SDS011;48483;44.640;7.494;2023-10-31T10:09:48;5.95;;;4.18;;
39956;SDS011;48483;44.640;7.494;2023-10-31T10:12:15;5.50;;;3.55;;
39956;SDS011;48483;44.640;7.494;2023-10-31T10:14:44;8.05;;;3.72;;
39956;SDS011;48483;44.640;7.494;2023-10-31T10:17:15;4.72;;;3.45;;
39956;SDS011;48483;44.640;7.494;2023-10-31T10:19:42;4.22;;;3.05;;
39956;SDS011;48483;44.640;7.494;2023-10-31T10:22:10;7.32;;;3.33;;
39956;SDS011;48483;44.640;7.494;2023-10-31T10:24:41;5.63;;;3.33;;
39956;SDS011;48483;44.640;7.494;2023-10-31T10:27:08;12.20;;;4.55;;
39956;SDS011;48483;44.640;7.494;2023-10-31T10:29:35;5.60;;;3.72;;
39956;SDS011;48483;44.640;7.494;2023-10-31T10:32:04;5.85;;;3.78;;
39956;SDS011;48483;44.640;7.494;2023-10-31T10:34:34;5.13;;;3.40;;
39956;SDS011;48483;44.640;7.494;2023-10-31T10:37:01;5.07;;;3.78;;
39956;SDS011;48483;44.640;7.494;2023-10-31T10:39:33;4.50;;;3.67;;
39956;SDS011;48483;44.640;7.494;2023-10-31T10:42:02;8.18;;;3.83;;
39956;SDS011;48483;44.640;7.494;2023-10-31T10:44:35;5.82;;;4.38;;
39956;SDS011;48483;44.640;7.494;2023-10-31T10:47:04;5.70;;;3.58;;
39956;SDS011;48483;44.640;7.494;2023-10-31T10:49:35;8.82;;;4.28;;
39956;SDS011;48483;44.640;7.494;2023-10-31T10:52:06;7.00;;;3.50;;
39956;SDS011;48483;44.640;7.494;2023-10-31T10:54:47;6.10;;;4.00;;
39956;SDS011;48483;44.640;7.494;2023-10-31T10:57:20;7.80;;;4.43;;
39956;SDS011;48483;44.640;7.494;2023-10-31T10:59:50;8.10;;;3.70;;
39956;SDS011;48483;44.640;7.494;2023-10-31T11:02:21;7.15;;;4.30;;
39956;SDS011;48483;44.640;7.494;2023-10-31T11:04:48;5.95;;;4.20;;
39956;SDS011;48483;44.640;7.494;2023-10-31T11:07:16;5.95;;;3.80;;
39956;SDS011;48483;44.640;7.494;2023-10-31T11:09:45;8.25;;;5.78;;
39956;SDS011;48483;44.640;7.494;2023-10-31T11:12:13;6.35;;;5.05;;
39956;SDS011;48483;44.640;7.494;2023-10-31T11:14:41;7.18;;;5.57;;
39956;SDS011;48483;44.640;7.494;2023-10-31T11:17:10;8.43;;;5.68;;
39956;SDS011;48483;44.640;7.494;2023-10-31T11:19:46;10.65;;;7.00;;
39956;SDS011;48483;44.640;7.494;2023-10-31T11:22:13;7.47;;;5.95;;
39956;SDS011;48483;44.640;7.494;2023-10-31T11:24:43;6.30;;;5.07;;
39956;SDS011;48483;44.640;7.494;2023-10-31T11:27:11;6.13;;;5.07;;
39956;SDS011;48483;44.640;7.494;2023-10-31T11:29:37;9.35;;;5.28;;
39956;SDS011;48483;44.640;7.494;2023-10-31T11:32:04;8.65;;;7.68;;
39956;SDS011;48483;44.640;7.494;2023-10-31T11:37:17;7.35;;;5.35;;
39956;SDS011;48483;44.640;7.494;2023-10-31T11:42:46;6.78;;;4.85;;
39956;SDS011;48483;44.640;7.494;2023-10-31T11:45:23;8.02;;;4.85;;
39956;SDS011;48483;44.640;7.494;2023-10-31T11:47:52;7.63;;;5.00;;
39956;SDS011;48483;44.640;7.494;2023-10-31T11:50:19;8.18;;;4.68;;
39956;SDS011;48483;44.640;7.494;2023-10-31T11:52:57;6.97;;;5.60;;
39956;SDS011;48483;44.640;7.494;2023-10-31T11:55:25;5.32;;;4.03;;
39956;SDS011;48483;44.640;7.494;2023-10-31T11:57:53;5.50;;;4.20;;
39956;SDS011;48483;44.640;7.494;2023-10-31T12:00:23;6.95;;;5.00;;
39956;SDS011;48483;44.640;7.494;2023-10-31T12:05:26;7.28;;;6.35;;
39956;SDS011;48483;44.640;7.494;2023-10-31T12:07:52;8.25;;;6.03;;
39956;SDS011;48483;44.640;7.494;2023-10-31T12:10:24;9.13;;;4.90;;
39956;SDS011;48483;44.640;7.494;2023-10-31T12:12:54;5.88;;;4.88;;
39956;SDS011;48483;44.640;7.494;2023-10-31T12:15:20;7.57;;;5.30;;
39956;SDS011;48483;44.640;7.494;2023-10-31T12:17:47;5.45;;;3.50;;
39956;SDS011;48483;44.640;7.494;2023-10-31T12:20:14;5.65;;;4.22;;
39956;SDS011;48483;44.640;7.494;2023-10-31T12:22:42;5.78;;;4.60;;
39956;SDS011;48483;44.640;7.494;2023-10-31T12:25:09;8.38;;;5.38;;
39956;SDS011;48483;44.640;7.494;2023-10-31T12:27:42;7.25;;;6.18;;
39956;SDS011;48483;44.640;7.494;2023-10-31T12:30:14;4.32;;;3.58;;
39956;SDS011;48483;44.640;7.494;2023-10-31T12:32:42;6.47;;;2.63;;
39956;SDS011;48483;44.640;7.494;2023-10-31T12:35:10;4.38;;;3.45;;
39956;SDS011;48483;44.640;7.494;2023-10-31T12:37:43;6.47;;;2.95;;
39956;SDS011;48483;44.640;7.494;2023-10-31T12:40:11;3.40;;;1.85;;
39956;SDS011;48483;44.640;7.494;2023-10-31T12:42:41;2.45;;;1.65;;
39956;SDS011;48483;44.640;7.494;2023-10-31T12:45:08;4.50;;;2.13;;
39956;SDS011;48483;44.640;7.494;2023-10-31T12:47:36;4.35;;;1.40;;
39956;SDS011;48483;44.640;7.494;2023-10-31T12:50:07;3.63;;;1.30;;
39956;SDS011;48483;44.640;7.494;2023-10-31T12:52:47;2.13;;;1.30;;
39956;SDS011;48483;44.640;7.494;2023-10-31T12:55:15;5.90;;;1.60;;
39956;SDS011;48483;44.640;7.494;2023-10-31T12:57:43;3.15;;;1.48;;
39956;SDS011;48483;44.640;7.494;2023-10-31T13:00:10;2.15;;;1.02;;
39956;SDS011;48483;44.640;7.494;2023-10-31T13:02:41;1.50;;;1.08;;
39956;SDS011;48483;44.640;7.494;2023-10-31T13:05:11;3.20;;;1.23;;
39956;SDS011;48483;44.640;7.494;2023-10-31T13:07:39;5.22;;;2.58;;
39956;SDS011;48483;44.640;7.494;2023-10-31T13:10:07;2.05;;;0.77;;
39956;SDS011;48483;44.640;7.494;2023-10-31T13:12:35;2.35;;;1.10;;
39956;SDS011;48483;44.640;7.494;2023-10-31T13:15:03;6.70;;;2.17;;
39956;SDS011;48483;44.640;7.494;2023-10-31T13:17:31;2.63;;;1.10;;
39956;SDS011;48483;44.640;7.494;2023-10-31T13:19:59;2.38;;;1.40;;
39956;SDS011;48483;44.640;7.494;2023-10-31T13:22:26;1.60;;;1.10;;
39956;SDS011;48483;44.640;7.494;2023-10-31T13:24:52;8.60;;;4.97;;
39956;SDS011;48483;44.640;7.494;2023-10-31T13:27:19;6.45;;;3.40;;
39956;SDS011;48483;44.640;7.494;2023-10-31T13:29:46;5.75;;;2.95;;
39956;SDS011;48483;44.640;7.494;2023-10-31T13:32:16;3.58;;;1.65;;
39956;SDS011;48483;44.640;7.494;2023-10-31T13:34:42;3.10;;;2.10;;
39956;SDS011;48483;44.640;7.494;2023-10-31T13:37:10;5.32;;;1.08;;
39956;SDS011;48483;44.640;7.494;2023-10-31T13:39:37;1.52;;;1.23;;
39956;SDS011;48483;44.640;7.494;2023-10-31T13:42:04;2.13;;;1.60;;
39956;SDS011;48483;44.640;7.494;2023-10-31T13:44:31;4.10;;;2.63;;
39956;SDS011;48483;44.640;7.494;2023-10-31T13:46:58;2.55;;;1.75;;
39956;SDS011;48483;44.640;7.494;2023-10-31T13:49:24;4.65;;;1.10;;
39956;SDS011;48483;44.640;7.494;2023-10-31T13:51:51;2.42;;;1.00;;
39956;SDS011;48483;44.640;7.494;2023-10-31T13:54:19;1.23;;;0.73;;
39956;SDS011;48483;44.640;7.494;2023-10-31T13:56:45;1.63;;;0.90;;
39956;SDS011;48483;44.640;7.494;2023-10-31T13:59:13;3.15;;;1.65;;
39956;SDS011;48483;44.640;7.494;2023-10-31T14:01:40;2.35;;;1.27;;
39956;SDS011;48483;44.640;7.494;2023-10-31T14:04:07;1.63;;;1.10;;
39956;SDS011;48483;44.640;7.494;2023-10-31T14:06:34;1.80;;;1.10;;
39956;SDS011;48483;44.640;7.494;2023-10-31T14:09:00;2.67;;;1.23;;
39956;SDS011;48483;44.640;7.494;2023-10-31T14:11:32;3.55;;;1.65;;
39956;SDS011;48483;44.640;7.494;2023-10-31T14:13:59;2.30;;;1.23;;
39956;SDS011;48483;44.640;7.494;2023-10-31T14:16:29;1.85;;;1.08;;
39956;SDS011;48483;44.640;7.494;2023-10-31T14:18:55;1.05;;;0.82;;
39956;SDS011;48483;44.640;7.494;2023-10-31T14:21:22;3.55;;;0.93;;
39956;SDS011;48483;44.640;7.494;2023-10-31T14:23:49;1.70;;;1.10;;
39956;SDS011;48483;44.640;7.494;2023-10-31T14:26:19;1.60;;;0.93;;
39956;SDS011;48483;44.640;7.494;2023-10-31T14:28:47;2.85;;;1.10;;
39956;SDS011;48483;44.640;7.494;2023-10-31T14:31:14;3.13;;;1.10;;
39956;SDS011;48483;44.640;7.494;2023-10-31T14:33:41;3.22;;;1.98;;
39956;SDS011;48483;44.640;7.494;2023-10-31T14:36:08;6.82;;;1.88;;
39956;SDS011;48483;44.640;7.494;2023-10-31T14:38:37;4.97;;;1.55;;
39956;SDS011;48483;44.640;7.494;2023-10-31T14:41:03;1.42;;;0.70;;
39956;SDS011;48483;44.640;7.494;2023-10-31T14:43:30;2.15;;;0.70;;
39956;SDS011;48483;44.640;7.494;2023-10-31T14:45:58;1.35;;;0.55;;
39956;SDS011;48483;44.640;7.494;2023-10-31T14:48:25;1.40;;;0.88;;
39956;SDS011;48483;44.640;7.494;2023-10-31T14:50:52;2.25;;;1.08;;
39956;SDS011;48483;44.640;7.494;2023-10-31T14:53:18;3.47;;;1.23;;
39956;SDS011;48483;44.640;7.494;2023-10-31T14:55:45;2.53;;;0.70;;
39956;SDS011;48483;44.640;7.494;2023-10-31T14:58:12;5.05;;;0.80;;